createdAt,value
2022-09-13T00:00:18.760Z,4.70
2022-09-13T00:03:04.691Z,4.70
2022-09-13T00:05:50.052Z,4.47
2022-09-13T00:08:35.373Z,4.50
2022-09-13T00:11:23.799Z,3.93
2022-09-13T00:14:09.116Z,4.30
2022-09-13T00:16:54.431Z,4.57
2022-09-13T00:19:39.664Z,4.13
2022-09-13T00:22:24.903Z,4.60
2022-09-13T00:25:10.365Z,4.33
2022-09-13T00:27:55.907Z,4.30
2022-09-13T00:30:41.073Z,4.07
2022-09-13T00:33:26.149Z,3.87
2022-09-13T00:36:12.640Z,4.00
2022-09-13T00:39:00.014Z,4.20
2022-09-13T00:41:45.442Z,4.27
2022-09-13T00:45:12.249Z,3.70
2022-09-13T00:48:03.869Z,3.70
2022-09-13T00:50:54.994Z,4.03
2022-09-13T00:53:47.361Z,3.97
2022-09-13T00:56:43.822Z,3.40
2022-09-13T00:59:34.972Z,4.10
2022-09-13T01:02:21.405Z,4.07
2022-09-13T01:05:07.491Z,4.10
2022-09-13T01:07:53.026Z,3.97
2022-09-13T01:10:41.619Z,3.87
2022-09-13T01:13:32.207Z,3.93
2022-09-13T01:16:18.159Z,4.07
2022-09-13T01:19:03.482Z,3.83
2022-09-13T01:22:10.193Z,3.80
2022-09-13T01:25:32.794Z,3.70
2022-09-13T01:28:55.793Z,3.67
2022-09-13T01:31:56.377Z,3.50
2022-09-13T01:34:59.232Z,3.23
2022-09-13T01:38:13.623Z,3.53
2022-09-13T01:44:46.035Z,3.70
2022-09-13T01:47:54.723Z,3.57
2022-09-13T01:50:48.860Z,3.17
2022-09-13T01:54:02.781Z,3.07
2022-09-13T01:57:11.286Z,3.43
2022-09-13T02:00:10.523Z,3.53
2022-09-13T02:03:11.652Z,3.47
2022-09-13T02:06:03.609Z,3.53
2022-09-13T02:09:00.545Z,3.47
2022-09-13T02:11:51.417Z,3.30
2022-09-13T02:14:43.462Z,3.27
2022-09-13T02:17:34.115Z,3.27
2022-09-13T02:20:33.332Z,2.93
2022-09-13T02:23:26.526Z,3.10
2022-09-13T02:26:15.398Z,3.17
2022-09-13T02:29:06.744Z,2.97
2022-09-13T02:32:00.113Z,2.80
2022-09-13T02:34:54.152Z,3.10
2022-09-13T02:37:41.780Z,3.23
2022-09-13T02:40:32.341Z,2.97
2022-09-13T02:43:31.599Z,2.90
2022-09-13T02:46:29.435Z,3.20
2022-09-13T02:49:41.125Z,2.97
2022-09-13T02:52:48.410Z,2.83
2022-09-13T02:56:11.419Z,3.13
2022-09-13T02:59:10.160Z,3.83
2022-09-13T03:02:09.954Z,4.20
2022-09-13T03:04:55.651Z,4.20
2022-09-13T03:07:41.068Z,4.23
2022-09-13T03:10:36.761Z,4.50
2022-09-13T03:13:34.989Z,3.93
2022-09-13T03:16:38.949Z,4.70
2022-09-13T03:19:33.723Z,4.30
2022-09-13T03:22:53.077Z,3.90
2022-09-13T03:25:52.461Z,3.90
2022-09-13T03:29:05.188Z,4.23
2022-09-13T03:32:01.668Z,4.10
2022-09-13T03:35:16.941Z,3.70
2022-09-13T03:38:19.933Z,4.37
2022-09-13T03:41:10.919Z,4.50
2022-09-13T03:44:02.149Z,3.83
2022-09-13T03:46:52.265Z,3.70
2022-09-13T03:49:39.389Z,3.90
2022-09-13T03:52:24.912Z,3.77
2022-09-13T03:55:10.831Z,3.67
2022-09-13T03:57:56.409Z,3.77
2022-09-13T04:00:42.204Z,4.00
2022-09-13T04:03:27.472Z,3.37
2022-09-13T04:06:12.677Z,3.40
2022-09-13T04:08:59.786Z,3.63
2022-09-13T04:11:45.310Z,3.37
2022-09-13T04:14:31.000Z,3.60
2022-09-13T04:17:16.538Z,3.80
2022-09-13T04:20:02.181Z,3.20
2022-09-13T04:22:54.990Z,3.00
2022-09-13T04:25:40.667Z,3.10
2022-09-13T04:28:25.838Z,3.30
2022-09-13T04:31:11.159Z,3.20
2022-09-13T04:33:56.423Z,3.30
2022-09-13T04:36:41.677Z,2.93
2022-09-13T04:39:27.414Z,3.40
2022-09-13T04:42:12.846Z,3.03
2022-09-13T04:44:58.237Z,3.60
2022-09-13T04:47:43.732Z,3.40
2022-09-13T04:50:28.967Z,3.10
2022-09-13T04:53:15.095Z,3.10
2022-09-13T04:56:04.404Z,3.33
2022-09-13T04:58:56.225Z,3.30
2022-09-13T05:01:41.877Z,3.23
2022-09-13T05:04:27.617Z,3.73
2022-09-13T05:07:13.011Z,3.40
2022-09-13T05:09:58.357Z,3.47
2022-09-13T05:12:43.611Z,3.30
2022-09-13T05:15:28.868Z,2.90
2022-09-13T05:18:14.262Z,3.07
2022-09-13T05:21:01.101Z,3.50
2022-09-13T05:23:49.949Z,3.67
2022-09-13T05:26:35.673Z,3.50
2022-09-13T05:29:20.770Z,3.30
2022-09-13T05:32:06.195Z,3.30
2022-09-13T05:34:51.547Z,3.40
2022-09-13T05:37:36.699Z,3.20
2022-09-13T05:40:22.009Z,3.40
2022-09-13T05:43:07.240Z,3.60
2022-09-13T05:46:00.019Z,3.50
2022-09-13T05:48:46.678Z,3.45
2022-09-13T05:51:32.342Z,3.37
2022-09-13T05:54:17.634Z,3.10
2022-09-13T05:57:03.130Z,3.27
2022-09-13T05:59:48.325Z,3.30
2022-09-13T06:02:33.603Z,3.57
2022-09-13T06:05:18.783Z,3.80
2022-09-13T06:08:03.934Z,3.50
2022-09-13T06:11:04.230Z,3.43
2022-09-13T06:13:50.226Z,3.00
2022-09-13T06:16:37.002Z,3.30
2022-09-13T06:19:22.291Z,3.20
2022-09-13T06:22:07.893Z,3.20
2022-09-13T06:24:53.407Z,3.20
2022-09-13T06:27:38.559Z,3.50
2022-09-13T06:30:23.820Z,3.10
2022-09-13T06:33:09.038Z,3.03
2022-09-13T06:35:54.528Z,3.00
2022-09-13T06:38:40.067Z,2.97
2022-09-13T06:41:27.337Z,3.10
2022-09-13T06:44:13.000Z,3.33
2022-09-13T06:46:58.148Z,2.97
2022-09-13T06:49:43.409Z,2.97
2022-09-13T06:52:28.886Z,3.23
2022-09-13T06:55:14.620Z,3.00
2022-09-13T06:57:59.916Z,3.00
2022-09-13T07:00:45.073Z,3.20
2022-09-13T07:03:30.419Z,3.00
2022-09-13T07:06:27.019Z,3.07
2022-09-13T07:09:14.969Z,2.93
2022-09-13T07:12:00.601Z,3.10
2022-09-13T07:14:46.083Z,3.23
2022-09-13T07:17:31.748Z,3.43
2022-09-13T07:20:17.451Z,3.20
2022-09-13T07:23:02.835Z,2.80
2022-09-13T07:25:55.137Z,3.10
2022-09-13T07:28:42.781Z,3.03
2022-09-13T07:31:31.548Z,2.77
2022-09-13T07:34:20.472Z,2.67
2022-09-13T07:37:06.161Z,3.17
2022-09-13T07:39:51.486Z,2.73
2022-09-13T07:42:36.716Z,2.90
2022-09-13T07:45:23.863Z,2.93
2022-09-13T07:48:09.266Z,3.00
2022-09-13T07:51:02.174Z,2.77
2022-09-13T07:53:52.620Z,2.92
2022-09-13T07:56:42.269Z,2.73
2022-09-13T07:59:30.212Z,2.80
2022-09-13T08:02:18.032Z,2.90
2022-09-13T08:05:03.377Z,2.80
2022-09-13T08:07:48.596Z,2.93
2022-09-13T08:10:35.077Z,2.90
2022-09-13T08:13:20.636Z,2.50
2022-09-13T08:16:06.965Z,3.20
2022-09-13T08:18:55.785Z,3.00
2022-09-13T08:21:42.530Z,3.00
2022-09-13T08:24:28.496Z,2.87
2022-09-13T08:27:13.676Z,2.47
2022-09-13T08:29:58.940Z,2.60
2022-09-13T08:32:44.215Z,2.87
2022-09-13T08:35:30.026Z,2.70
2022-09-13T08:38:15.346Z,2.73
2022-09-13T08:41:06.202Z,2.53
2022-09-13T08:44:03.247Z,2.50
2022-09-13T08:46:49.693Z,2.73
2022-09-13T08:49:43.836Z,2.80
2022-09-13T08:52:41.546Z,2.97
2022-09-13T08:55:43.260Z,2.63
2022-09-13T08:58:49.374Z,2.60
2022-09-13T09:01:47.509Z,2.53
2022-09-13T09:04:56.800Z,2.73
2022-09-13T09:07:52.212Z,2.53
2022-09-13T09:10:42.280Z,2.57
2022-09-13T09:13:51.118Z,2.70
2022-09-13T09:16:45.302Z,2.73
2022-09-13T09:19:37.754Z,2.70
2022-09-13T09:22:28.718Z,2.92
2022-09-13T09:25:14.343Z,2.97
2022-09-13T09:27:59.658Z,2.40
2022-09-13T09:31:19.905Z,2.70
2022-09-13T09:34:14.577Z,2.53
2022-09-13T09:37:11.579Z,2.77
2022-09-13T09:40:08.114Z,2.20
2022-09-13T09:42:54.418Z,2.83
2022-09-13T09:45:41.887Z,2.60
2022-09-13T09:48:32.573Z,2.47
2022-09-13T09:51:22.264Z,2.60
2022-09-13T09:54:07.702Z,2.50
2022-09-13T09:56:55.342Z,2.63
2022-09-13T09:59:40.616Z,2.53
2022-09-13T10:02:25.903Z,2.50
2022-09-13T10:05:14.450Z,2.57
2022-09-13T10:08:05.292Z,2.80
2022-09-13T10:10:57.356Z,2.37
2022-09-13T10:13:59.349Z,2.60
2022-09-13T10:16:44.596Z,2.60
2022-09-13T10:19:29.963Z,2.53
2022-09-13T10:22:15.136Z,2.70
2022-09-13T10:25:22.420Z,2.17
2022-09-13T10:28:14.478Z,2.57
2022-09-13T10:31:06.304Z,2.40
2022-09-13T10:33:51.430Z,2.77
2022-09-13T10:36:53.663Z,2.80
2022-09-13T10:39:57.384Z,2.40
2022-09-13T10:42:53.368Z,2.58
2022-09-13T10:45:38.734Z,2.80
2022-09-13T10:48:24.674Z,2.90
2022-09-13T10:51:28.325Z,2.70
2022-09-13T10:54:23.225Z,2.57
2022-09-13T10:57:31.166Z,2.50
2022-09-13T11:00:22.875Z,2.97
2022-09-13T11:03:19.954Z,2.70
2022-09-13T11:06:11.130Z,2.93
2022-09-13T11:09:25.597Z,3.07
2022-09-13T11:12:29.625Z,2.57
2022-09-13T11:15:25.371Z,2.73
2022-09-13T11:18:23.232Z,2.33
2022-09-13T11:21:08.473Z,2.50
2022-09-13T11:24:10.687Z,2.70
2022-09-13T11:27:05.242Z,2.93
2022-09-13T11:30:10.967Z,2.53
2022-09-13T11:33:24.622Z,3.07
2022-09-13T11:36:25.294Z,2.50
2022-09-13T11:39:39.024Z,2.50
2022-09-13T11:42:27.379Z,2.47
2022-09-13T11:45:24.125Z,2.77
2022-09-13T11:48:41.778Z,2.47
2022-09-13T11:51:45.664Z,2.67
2022-09-13T11:55:06.388Z,2.40
2022-09-13T11:58:13.491Z,2.20
2022-09-13T12:01:01.723Z,2.70
2022-09-13T12:03:59.930Z,2.53
2022-09-13T12:06:53.707Z,2.40
2022-09-13T12:09:50.033Z,2.35
2022-09-13T12:12:37.528Z,2.77
2022-09-13T12:15:33.022Z,2.77
2022-09-13T12:18:49.586Z,3.00
2022-09-13T12:21:41.233Z,2.63
2022-09-13T12:24:47.547Z,3.03
2022-09-13T12:27:54.587Z,2.70
2022-09-13T12:30:53.774Z,2.80
2022-09-13T12:33:41.175Z,2.77
2022-09-13T12:36:58.732Z,2.80
2022-09-13T12:40:03.894Z,2.60
2022-09-13T12:43:08.579Z,2.53
2022-09-13T12:45:58.805Z,2.80
2022-09-13T12:49:09.085Z,2.50
2022-09-13T12:51:54.391Z,2.67
2022-09-13T12:54:53.795Z,2.27
2022-09-13T12:58:06.442Z,2.90
2022-09-13T13:00:58.095Z,2.77
2022-09-13T13:03:52.128Z,2.70
2022-09-13T13:06:55.119Z,2.47
2022-09-13T13:09:48.003Z,2.92
2022-09-13T13:12:37.213Z,3.40
2022-09-13T13:15:25.469Z,3.67
2022-09-13T13:18:24.715Z,3.13
2022-09-13T13:21:23.381Z,3.70
2022-09-13T13:24:15.590Z,3.30
2022-09-13T13:27:01.176Z,3.70
2022-09-13T13:30:31.882Z,3.90
2022-09-13T13:33:28.759Z,4.10
2022-09-13T13:36:28.885Z,3.40
2022-09-13T13:39:23.099Z,3.20
2022-09-13T13:42:24.651Z,2.83
2022-09-13T13:45:20.763Z,2.63
2022-09-13T13:48:12.583Z,2.67
2022-09-13T13:51:18.830Z,3.00
2022-09-13T13:54:32.016Z,3.30
2022-09-13T13:57:25.121Z,3.38
2022-09-13T14:00:22.298Z,2.75
2022-09-13T14:03:07.264Z,3.00
2022-09-13T14:06:04.662Z,2.90
2022-09-13T14:12:05.212Z,2.90
2022-09-13T14:14:53.263Z,3.43
2022-09-13T14:17:53.797Z,3.20
2022-09-13T14:20:57.450Z,3.47
2022-09-13T14:23:43.185Z,3.45
2022-09-13T14:26:28.507Z,3.10
2022-09-13T14:29:20.909Z,3.07
2022-09-13T14:32:10.708Z,2.92
2022-09-13T14:35:03.022Z,3.20
2022-09-13T14:37:48.739Z,3.35
2022-09-13T14:40:34.044Z,3.33
2022-09-13T14:43:22.407Z,3.30
2022-09-13T14:46:19.720Z,2.90
2022-09-13T14:49:10.120Z,3.20
2022-09-13T14:52:00.023Z,3.67
2022-09-13T14:54:51.235Z,3.03
2022-09-13T14:57:38.527Z,2.90
2022-09-13T15:00:25.933Z,3.33
2022-09-13T15:03:16.051Z,3.13
2022-09-13T15:06:05.320Z,3.30
2022-09-13T15:08:53.106Z,3.73
2022-09-13T15:11:59.779Z,3.17
2022-09-13T15:14:45.250Z,3.57
2022-09-13T15:17:30.539Z,3.67
2022-09-13T15:20:16.703Z,4.50
2022-09-13T15:23:02.147Z,4.43
2022-09-13T15:25:51.418Z,4.37
2022-09-13T15:28:54.038Z,4.30
2022-09-13T15:31:39.800Z,5.07
2022-09-13T15:34:27.634Z,4.53
2022-09-13T15:37:15.214Z,5.27
2022-09-13T15:40:14.678Z,5.43
2022-09-13T15:43:02.245Z,5.13
2022-09-13T15:45:47.291Z,4.83
2022-09-13T15:48:36.053Z,4.57
2022-09-13T15:51:23.161Z,5.83
2022-09-13T15:54:13.309Z,5.17
2022-09-13T15:56:59.453Z,5.73
2022-09-13T15:59:44.896Z,5.63
2022-09-13T16:02:33.972Z,5.50
2022-09-13T16:05:20.159Z,10.93
2022-09-13T16:08:05.300Z,11.03
2022-09-13T16:10:51.035Z,10.17
2022-09-13T16:13:36.656Z,9.57
2022-09-13T16:16:21.885Z,9.77
2022-09-13T16:19:15.518Z,9.00
2022-09-13T16:22:00.918Z,9.13
2022-09-13T16:24:46.703Z,8.00
2022-09-13T16:27:34.083Z,7.77
2022-09-13T16:30:22.242Z,8.00
2022-09-13T16:33:07.645Z,7.20
2022-09-13T16:35:53.078Z,6.57
2022-09-13T16:38:38.768Z,5.70
2022-09-13T16:41:25.802Z,5.00
2022-09-13T16:44:11.102Z,4.47
2022-09-13T16:46:56.534Z,5.33
2022-09-13T16:49:42.182Z,6.33
2022-09-13T16:52:29.066Z,6.13
2022-09-13T16:55:14.289Z,6.77
2022-09-13T16:57:59.699Z,6.37
2022-09-13T17:00:45.311Z,5.77
2022-09-13T17:03:31.114Z,6.13
2022-09-13T17:06:18.405Z,5.70
2022-09-13T17:09:06.602Z,5.70
2022-09-13T17:11:51.964Z,5.93
2022-09-13T17:14:37.774Z,5.90
2022-09-13T17:17:23.231Z,5.60
2022-09-13T17:20:12.287Z,5.10
2022-09-13T17:22:57.660Z,5.10
2022-09-13T17:25:47.613Z,5.13
2022-09-13T17:28:35.458Z,5.47
2022-09-13T17:31:21.217Z,5.57
2022-09-13T17:34:06.787Z,4.90
2022-09-13T17:36:52.702Z,4.63
2022-09-13T17:39:38.577Z,4.47
2022-09-13T17:42:24.066Z,4.83
2022-09-13T17:45:10.493Z,5.17
2022-09-13T17:47:59.688Z,4.80
2022-09-13T17:50:46.456Z,4.40
2022-09-13T17:53:37.166Z,4.77
2022-09-13T17:56:32.251Z,4.97
2022-09-13T17:59:21.546Z,4.33
2022-09-13T18:02:07.254Z,4.93
2022-09-13T18:04:52.680Z,4.47
2022-09-13T18:07:38.383Z,3.93
2022-09-13T18:10:45.676Z,4.50
2022-09-13T18:13:30.389Z,4.00
2022-09-13T18:16:27.580Z,4.23
2022-09-13T18:19:13.290Z,4.10
2022-09-13T18:22:01.433Z,4.40
2022-09-13T18:24:47.049Z,4.40
2022-09-13T18:27:32.977Z,4.40
2022-09-13T18:30:18.315Z,4.73
2022-09-13T18:33:03.773Z,4.23
2022-09-13T18:35:59.433Z,4.80
2022-09-13T18:38:47.548Z,4.10
2022-09-13T18:41:34.454Z,4.67
2022-09-13T18:44:20.034Z,4.53
2022-09-13T18:47:08.770Z,4.77
2022-09-13T18:49:53.975Z,4.60
2022-09-13T18:52:40.179Z,4.57
2022-09-13T18:55:25.819Z,4.77
2022-09-13T18:58:13.567Z,4.43
2022-09-13T19:01:09.866Z,4.57
2022-09-13T19:03:58.691Z,4.13
2022-09-13T19:06:49.855Z,4.63
2022-09-13T19:09:35.945Z,5.17
2022-09-13T19:12:21.232Z,4.57
2022-09-13T19:15:07.223Z,4.43
2022-09-13T19:17:52.767Z,4.30
2022-09-13T19:20:39.606Z,4.43
2022-09-13T19:23:37.771Z,4.57
2022-09-13T19:26:34.367Z,4.80
2022-09-13T19:29:22.718Z,4.83
2022-09-13T19:32:08.089Z,4.57
2022-09-13T19:34:53.290Z,5.07
2022-09-13T19:37:38.563Z,4.47
2022-09-13T19:40:23.940Z,4.80
2022-09-13T19:43:10.035Z,4.50
2022-09-13T19:46:01.867Z,4.37
2022-09-13T19:48:48.999Z,4.57
2022-09-13T19:51:36.999Z,4.37
2022-09-13T19:54:22.236Z,4.30
2022-09-13T19:57:09.922Z,4.60
2022-09-13T19:59:55.459Z,4.20
2022-09-13T20:02:40.706Z,4.43
2022-09-13T20:05:28.149Z,4.63
2022-09-13T20:08:13.609Z,4.20
2022-09-13T20:10:58.923Z,4.80
2022-09-13T20:13:45.028Z,4.10
2022-09-13T20:16:32.657Z,4.03
2022-09-13T20:22:25.225Z,4.23
2022-09-13T20:25:10.430Z,4.43
2022-09-13T20:27:55.645Z,4.10
2022-09-13T20:30:42.265Z,4.20
2022-09-13T20:33:27.638Z,3.97
2022-09-13T20:36:15.214Z,4.37
2022-09-13T20:39:03.445Z,4.17
2022-09-13T20:41:52.433Z,4.27
2022-09-13T20:44:37.830Z,4.57
2022-09-13T20:47:23.238Z,4.50
2022-09-13T20:50:08.766Z,4.17
2022-09-13T20:52:55.253Z,4.33
2022-09-13T20:55:41.579Z,4.20
2022-09-13T20:58:27.233Z,4.10
2022-09-13T21:01:21.063Z,4.40
2022-09-13T21:07:14.294Z,4.47
2022-09-13T21:10:00.980Z,4.27
2022-09-13T21:12:50.481Z,4.03
2022-09-13T21:15:36.792Z,4.53
2022-09-13T21:18:22.299Z,4.23
2022-09-13T21:21:09.209Z,4.23
2022-09-13T21:23:56.667Z,4.20
2022-09-13T21:26:42.552Z,4.40
2022-09-13T21:29:28.935Z,4.33
2022-09-13T21:32:14.010Z,4.13
2022-09-13T21:34:59.947Z,4.80
2022-09-13T21:37:45.332Z,4.00
2022-09-13T21:40:30.570Z,4.33
2022-09-13T21:43:15.639Z,4.23
2022-09-13T21:46:06.327Z,4.10
2022-09-13T21:48:57.103Z,4.43
2022-09-13T21:51:46.750Z,4.40
2022-09-13T21:54:32.262Z,4.80
2022-09-13T21:57:17.612Z,4.33
2022-09-13T22:00:05.154Z,4.23
2022-09-13T22:02:58.452Z,4.30
2022-09-13T22:05:44.160Z,4.10
2022-09-13T22:08:32.487Z,4.80
2022-09-13T22:11:21.971Z,4.77
2022-09-13T22:14:11.001Z,4.13
2022-09-13T22:16:56.754Z,4.87
2022-09-13T22:19:42.251Z,4.30
2022-09-13T22:22:27.492Z,4.10
2022-09-13T22:25:12.775Z,4.67
2022-09-13T22:27:57.859Z,4.60
2022-09-13T22:30:43.462Z,4.47
2022-09-13T22:33:28.621Z,4.63
2022-09-13T22:36:16.194Z,4.20
2022-09-13T22:39:01.627Z,4.33
2022-09-13T22:41:46.858Z,4.27
2022-09-13T22:44:32.491Z,4.70
2022-09-13T22:47:17.832Z,3.93
2022-09-13T22:50:03.174Z,4.60
2022-09-13T22:52:48.982Z,4.07
2022-09-13T22:55:34.186Z,4.50
2022-09-13T22:58:19.885Z,4.37
2022-09-13T23:01:08.347Z,4.20
2022-09-13T23:03:54.224Z,4.30
2022-09-13T23:06:40.187Z,4.47
2022-09-13T23:09:25.676Z,4.43
2022-09-13T23:12:11.114Z,4.40
2022-09-13T23:14:56.328Z,3.70
2022-09-13T23:17:41.648Z,4.20
2022-09-13T23:20:27.243Z,4.20
2022-09-13T23:23:12.929Z,4.27
2022-09-13T23:26:06.905Z,4.50
2022-09-13T23:28:55.518Z,4.30
2022-09-13T23:31:40.766Z,4.23
2022-09-13T23:34:26.253Z,4.53
2022-09-13T23:37:11.674Z,4.33
2022-09-13T23:39:59.556Z,3.97
2022-09-13T23:42:44.745Z,4.30
2022-09-13T23:45:30.224Z,4.50
2022-09-13T23:48:15.358Z,4.23
2022-09-13T23:51:05.559Z,4.17
2022-09-13T23:53:53.108Z,4.30
2022-09-13T23:56:38.984Z,4.23
2022-09-13T23:59:24.436Z,4.10
